Almond, NY

7:15 AM EDT on August 31, 2014 (GMT -0400)
Ardachy Farm | Change Station
CLOSE
Current Station
Personal Weather Station
Location: Alfred Station, NY
Elevation: 1877 ft
Nearby Weather Stations

Elev 1877 ft 42.28 °N, 77.77 °W | Updated 12 seconds ago

Overcast
Overcast
67.8 °F
Feels Like 67.8 °F
N
6.9
Wind Variable Wind from South
Gusts 7.6 mph

Today
High -- | Low -- °F
--% Chance of Precip.
Yesterday
High -- | Low -- °F
Precip. -- in
6:35 AM 7:46 PM
Waxing Crescent, 30% visible
Pressure 30.06 in
Visibility 10.0 miles
Clouds Few 7000 ft
Overcast 11000 ft
Dew Point 68 °F
Humidity 99%
Rainfall 0.07 in
Snow Depth Not available.
UV 0 out of 12
Pollen 5.10 out of 12
Ozone Good
PM2.5 Moderate
Flu Activity Not available.
METAR KELZ 311056Z AUTO 20006KT 10SM -RA FEW070 OVC110 21/19 A3010 RMK AO2 RAB08E17B35 SLP179 P0000 T02060189

More Conditions Fewer Conditions

Pressure 30.06 in
Visibility 10.0 miles
Clouds Few 7000 ft
Overcast 11000 ft
Dew Point 68 °F
Humidity 99%
Rainfall 0.07 in
Snow Depth Not available.
UV 0 out of 12
Pollen 5.10 out of 12
Ozone Good
PM2.5 Moderate
Flu Activity Not available.
METAR KELZ 311056Z AUTO 20006KT 10SM -RA FEW070 OVC110 21/19 A3010 RMK AO2 RAB08E17B35 SLP179 P0000 T02060189

More Conditions Fewer Conditions

10-Day Weather Forecast

Almanac

Astronomy

Aug. 31, 2014 Rise Set
Actual Time 6:35 AM EDT 7:46 PM EDT
Civil Twilight 6:06 AM EDT 8:15 PM EDT
Nautical Twilight 5:31 AM EDT 8:50 PM EDT
Astronomical Twilight 4:55 AM EDT 9:26 PM EDT
Moon 12:27 PM EDT 10:53 PM EDT
Length of Visible Light 14h 09m
Length of Day
13h 11m
Tomorrow will be 2m 44s shorter.
Waxing Crescent, 30% of the Moon is Illuminated
Today
Waxing Crescent
Sep 2
First Quarter
Sep 8
Full
Sep 15
Last Quarter
Sep 24
New

Today's Extremes

State Highs State Lows

Community

WunderPhotos

Upload Photos

1,748,840 photos uploaded!

Nearby

Air Quality

  Air Quality AQ Index Pollutant
Yesterday Good
PM2.5
Yesterday Good
OZONE
Current Moderate
PM2.5
Current Good
OZONE
Sunday Good
PM2.5
Sunday Good
OZONE
Monday Moderate
OZONE
Monday Moderate
PM2.5
Tuesday Moderate
PM2.5
Tuesday Good
OZONE

Snow Depth

Station Depth Elevation
No new snow has been reported.

Earthquake Activity

City Distance Mag. Time & Date
No recent earthquake activity has been reported nearby.
Minimum magnitude displayed is 2.5.

Coastal Water Temperatures

Place Temperature
No Stations Reporting

Nearby Weather Stations